createdAt,value
2024-01-15T00:01:01.247Z,100637.28
2024-01-15T00:05:48.614Z,100629.44
2024-01-15T00:10:35.849Z,100511.69
2024-01-15T00:15:26.029Z,100555.94
2024-01-15T00:20:14.827Z,100609.59
2024-01-15T00:25:02.152Z,100609.59
2024-01-15T00:29:49.338Z,100613.41
2024-01-15T00:34:39.233Z,100575.03
2024-01-15T00:39:26.625Z,100594.28
2024-01-15T00:44:16.193Z,100581.59
2024-01-15T00:49:03.714Z,100483.09
2024-01-15T00:53:53.562Z,100423.59
2024-01-15T00:58:40.910Z,100578.19
2024-01-15T01:03:28.263Z,100540.31
2024-01-15T01:08:16.827Z,100447.50
2024-01-15T01:13:06.649Z,100571.84
2024-01-15T01:17:53.962Z,100562.84
2024-01-15T01:22:41.360Z,100556.66
2024-01-15T01:27:28.651Z,100554.25
2024-01-15T01:32:18.499Z,100552.63
2024-01-15T01:37:05.922Z,100566.63
2024-01-15T01:41:53.207Z,100592.53
2024-01-15T01:46:40.728Z,100429.28
2024-01-15T01:51:57.844Z,100558.63
2024-01-15T01:56:48.808Z,100559.59
2024-01-15T02:01:36.038Z,100562.56
2024-01-15T02:06:24.225Z,100575.72
2024-01-15T02:11:12.271Z,100543.28
2024-01-15T02:16:02.027Z,100568.66
2024-01-15T02:20:49.242Z,100455.75
2024-01-15T02:25:40.735Z,100524.38
2024-01-15T02:30:28.838Z,100534.84
2024-01-15T02:35:16.389Z,100524.66
2024-01-15T02:40:03.626Z,100501.66
2024-01-15T02:44:53.571Z,100515.34
2024-01-15T02:49:40.996Z,100513.75
2024-01-15T02:54:28.488Z,100543.88
2024-01-15T02:59:15.682Z,100526.50
2024-01-15T03:04:05.792Z,100550.16
2024-01-15T03:08:53.021Z,100541.00
2024-01-15T03:13:40.213Z,100534.88
2024-01-15T03:18:30.514Z,100559.78
2024-01-15T03:23:21.992Z,100539.63
2024-01-15T03:28:09.212Z,100558.00
2024-01-15T03:32:56.383Z,100448.19
2024-01-15T03:37:45.862Z,100550.88
2024-01-15T03:42:35.873Z,100514.84
2024-01-15T03:47:23.167Z,100507.47
2024-01-15T03:52:10.352Z,100488.31
2024-01-15T03:56:57.580Z,100452.38
2024-01-15T04:01:52.283Z,100485.53
2024-01-15T04:06:39.753Z,100456.72
2024-01-15T04:11:27.090Z,100519.53
2024-01-15T04:16:14.372Z,100531.31
2024-01-15T04:21:05.691Z,100472.31
2024-01-15T04:25:53.224Z,100414.13
2024-01-15T04:30:40.522Z,100372.53
2024-01-15T04:35:27.858Z,100469.16
2024-01-15T04:40:17.927Z,100478.25
2024-01-15T04:45:06.128Z,100486.13
2024-01-15T04:49:53.696Z,100504.25
2024-01-15T04:54:41.208Z,100439.41
2024-01-15T04:59:31.178Z,100338.00
2024-01-15T05:04:18.821Z,100370.19
2024-01-15T05:09:06.408Z,100376.66
2024-01-15T05:13:53.790Z,100391.41
2024-01-15T05:18:44.383Z,100488.59
2024-01-15T05:23:32.894Z,100481.25
2024-01-15T05:28:20.082Z,100475.31
2024-01-15T05:33:07.444Z,100469.34
2024-01-15T05:37:57.659Z,100458.94
2024-01-15T05:42:44.923Z,100343.94
2024-01-15T05:47:32.235Z,100468.84
2024-01-15T05:52:19.466Z,100435.13
2024-01-15T05:57:09.285Z,100459.22
2024-01-15T06:01:56.650Z,100457.84
2024-01-15T06:06:43.921Z,100434.00
2024-01-15T06:11:31.552Z,100411.44
2024-01-15T06:16:21.515Z,100286.19
2024-01-15T06:21:08.805Z,100412.81
2024-01-15T06:25:56.127Z,100338.09
2024-01-15T06:30:43.610Z,100408.97
2024-01-15T06:35:33.406Z,100462.41
2024-01-15T06:40:20.585Z,100442.59
2024-01-15T06:45:09.199Z,100447.88
2024-01-15T06:49:56.483Z,100463.56
2024-01-15T06:54:46.627Z,100396.59
2024-01-15T06:59:34.000Z,100468.72
2024-01-15T07:04:21.298Z,100459.09
2024-01-15T07:09:08.610Z,100452.34
2024-01-15T07:13:58.494Z,100449.94
2024-01-15T07:18:45.725Z,100446.53
2024-01-15T07:23:33.517Z,100430.06
2024-01-15T07:28:20.754Z,100469.47
2024-01-15T07:33:10.712Z,100465.97
2024-01-15T07:37:57.965Z,100371.84
2024-01-15T07:42:45.362Z,100453.88
2024-01-15T07:47:32.886Z,100321.44
2024-01-15T07:52:22.801Z,100328.03
2024-01-15T07:57:10.163Z,100343.38
2024-01-15T08:01:57.566Z,100402.38
2024-01-15T08:06:45.318Z,100403.34
2024-01-15T08:11:35.936Z,100362.25
2024-01-15T08:16:23.210Z,100400.28
2024-01-15T08:21:10.487Z,100334.31
2024-01-15T08:25:57.945Z,100469.16
2024-01-15T08:30:47.823Z,100440.88
2024-01-15T08:35:35.110Z,100329.28
2024-01-15T08:40:22.443Z,100460.75
2024-01-15T08:45:10.173Z,100432.25
2024-01-15T08:50:00.043Z,100350.41
2024-01-15T08:54:47.294Z,100413.91
2024-01-15T08:59:34.526Z,100458.25
2024-01-15T09:04:22.156Z,100426.28
2024-01-15T09:09:11.992Z,100428.97
2024-01-15T09:13:59.214Z,100367.66
2024-01-15T09:18:46.544Z,100483.31
2024-01-15T09:23:33.863Z,100469.00
2024-01-15T09:28:23.757Z,100504.13
2024-01-15T09:33:11.255Z,100418.31
2024-01-15T09:37:58.719Z,100461.53
2024-01-15T09:42:47.404Z,100502.50
2024-01-15T09:47:40.007Z,100504.19
2024-01-15T09:52:29.329Z,100388.22
2024-01-15T09:57:17.825Z,100293.63
2024-01-15T10:02:06.889Z,100521.78
2024-01-15T10:07:02.451Z,100500.16
2024-01-15T10:11:50.649Z,100449.28
2024-01-15T10:16:38.830Z,100373.28
2024-01-15T10:21:26.874Z,100508.13
2024-01-15T10:26:19.309Z,100496.72
2024-01-15T10:31:11.611Z,100521.56
2024-01-15T10:36:01.439Z,100428.97
2024-01-15T10:40:48.927Z,100530.59
2024-01-15T10:45:41.496Z,100400.66
2024-01-15T10:50:30.812Z,100528.75
2024-01-15T10:55:20.257Z,100456.53
2024-01-15T11:00:09.139Z,100427.84
2024-01-15T11:05:00.855Z,100471.84
2024-01-15T11:09:48.331Z,100347.19
2024-01-15T11:14:36.067Z,100459.69
2024-01-15T11:19:23.917Z,100411.69
2024-01-15T11:24:37.755Z,100512.19
2024-01-15T11:29:32.800Z,100498.44
2024-01-15T11:34:20.103Z,100500.41
2024-01-15T11:39:43.382Z,100498.91
2024-01-15T11:44:31.479Z,100510.34
2024-01-15T11:49:38.118Z,100409.25
2024-01-15T11:54:25.462Z,100518.13
2024-01-15T11:59:16.301Z,100495.22
2024-01-15T12:04:04.591Z,100404.78
2024-01-15T12:08:51.986Z,100510.69
2024-01-15T12:13:39.268Z,100422.38
2024-01-15T12:18:29.235Z,100491.00
2024-01-15T12:23:17.100Z,100532.22
2024-01-15T12:28:05.123Z,100473.56
2024-01-15T12:32:53.709Z,100577.81
2024-01-15T12:37:44.909Z,100521.88
2024-01-15T12:42:32.421Z,100545.53
2024-01-15T12:47:21.463Z,100557.03
2024-01-15T12:52:10.874Z,100467.63
2024-01-15T12:57:00.893Z,100450.97
2024-01-15T13:01:48.372Z,100553.03
2024-01-15T13:06:35.909Z,100544.50
2024-01-15T13:11:23.260Z,100553.81
2024-01-15T13:16:13.083Z,100576.28
2024-01-15T13:21:00.229Z,100580.34
2024-01-15T13:25:47.456Z,100412.44
2024-01-15T13:30:35.205Z,100415.81
2024-01-15T13:35:27.440Z,100581.00
2024-01-15T13:40:18.501Z,100488.16
2024-01-15T13:45:06.848Z,100579.69
2024-01-15T13:49:54.212Z,100621.63
2024-01-15T13:54:49.446Z,100475.19
2024-01-15T13:59:38.148Z,100567.72
2024-01-15T14:04:25.371Z,100657.44
2024-01-15T14:09:12.684Z,100653.50
2024-01-15T14:14:02.623Z,100574.16
2024-01-15T14:18:49.952Z,100608.63
2024-01-15T14:23:37.290Z,100669.69
2024-01-15T14:28:24.616Z,100666.88
2024-01-15T14:38:29.731Z,100627.44
2024-01-15T14:43:17.185Z,100697.66
2024-01-15T14:48:04.905Z,100587.81
2024-01-15T14:52:55.215Z,100689.97
2024-01-15T14:57:42.591Z,100652.25
2024-01-15T15:02:31.579Z,100586.13
2024-01-15T15:07:20.445Z,100496.09
2024-01-15T15:12:10.859Z,100563.22
2024-01-15T15:16:58.249Z,100640.72
2024-01-15T15:33:33.091Z,100667.84
2024-01-15T15:38:21.585Z,100748.78
2024-01-15T15:43:08.822Z,100758.22
2024-01-15T15:47:56.003Z,100642.53
2024-01-15T15:52:46.105Z,100773.06
2024-01-15T15:57:33.407Z,100628.31
2024-01-15T16:02:22.437Z,100784.84
2024-01-15T16:07:10.045Z,100653.44
2024-01-15T16:12:02.072Z,100746.13
2024-01-15T16:23:12.810Z,100773.97
2024-01-15T16:23:39.023Z,100716.94
2024-01-15T16:32:01.245Z,100776.22
2024-01-15T16:36:48.562Z,100833.63
2024-01-15T16:41:35.959Z,100683.78
2024-01-15T16:46:25.770Z,100649.13
2024-01-15T16:51:13.488Z,100731.75
2024-01-15T16:56:00.842Z,100787.00
2024-01-15T17:00:51.793Z,100814.91
2024-01-15T17:05:41.745Z,100804.00
2024-01-15T17:10:28.975Z,100843.31
2024-01-15T17:15:16.305Z,100852.03
2024-01-15T17:20:04.196Z,100849.38
2024-01-15T17:24:54.220Z,100721.75
2024-01-15T17:29:45.810Z,100888.31
2024-01-15T17:34:33.097Z,100784.22
2024-01-15T17:39:20.468Z,100842.06
2024-01-15T17:44:10.304Z,100906.78
2024-01-15T17:48:57.879Z,100853.69
2024-01-15T17:53:47.175Z,100906.31
2024-01-15T17:58:34.706Z,100772.75
2024-01-15T18:03:24.615Z,100874.75
2024-01-15T18:08:12.160Z,100939.03
2024-01-15T18:12:59.447Z,100940.78
2024-01-15T18:17:57.055Z,100952.13
2024-01-15T18:22:47.207Z,100857.97
2024-01-15T18:27:35.866Z,100862.72
2024-01-15T18:32:23.318Z,100874.66
2024-01-15T18:37:12.943Z,100967.38
2024-01-15T18:42:02.722Z,100927.13
2024-01-15T18:46:49.954Z,100963.56
2024-01-15T18:51:37.270Z,100977.00
2024-01-15T18:56:24.779Z,100980.66
2024-01-15T19:01:14.921Z,100871.97
2024-01-15T19:06:02.293Z,100760.09
2024-01-15T19:10:50.100Z,100976.69
2024-01-15T19:15:37.322Z,100976.88
2024-01-15T19:20:27.648Z,100966.13
2024-01-15T19:25:16.855Z,100853.94
2024-01-15T19:30:04.901Z,100894.59
2024-01-15T19:34:52.282Z,100990.13
2024-01-15T19:39:42.186Z,100990.75
2024-01-15T19:44:30.855Z,100868.28
2024-01-15T19:49:18.221Z,100942.66
2024-01-15T19:54:05.476Z,100961.88
2024-01-15T19:58:58.328Z,100814.47
2024-01-15T20:03:46.098Z,100931.97
2024-01-15T20:08:33.355Z,100945.31
2024-01-15T20:13:21.310Z,100909.97
2024-01-15T20:18:24.911Z,100874.63
2024-01-15T20:23:12.382Z,100943.69
2024-01-15T20:28:02.072Z,100947.41
2024-01-15T20:32:49.524Z,101045.25
2024-01-15T20:37:39.706Z,100950.78
2024-01-15T20:42:27.162Z,100956.81
2024-01-15T20:47:14.511Z,100978.47
2024-01-15T20:52:03.913Z,101062.19
2024-01-15T20:56:55.948Z,100890.66
2024-01-15T21:01:43.150Z,101071.28
2024-01-15T21:06:30.753Z,101087.56
2024-01-15T21:11:18.084Z,100997.53
2024-01-15T21:16:08.054Z,101053.66
2024-01-15T21:20:55.379Z,101078.69
2024-01-15T21:25:42.816Z,101049.47
2024-01-15T21:30:31.563Z,101012.25
2024-01-15T21:35:25.124Z,101090.81
2024-01-15T21:40:12.925Z,100980.06
2024-01-15T21:45:00.556Z,100900.84
2024-01-15T21:49:49.641Z,100906.66
2024-01-15T21:54:43.745Z,100979.53
2024-01-15T21:59:33.218Z,101093.59
2024-01-15T22:04:22.926Z,101075.50
2024-01-15T22:09:16.195Z,100958.19
2024-01-15T22:14:07.760Z,101076.00
2024-01-15T22:19:02.487Z,101115.97
2024-01-15T22:23:52.631Z,100921.81
2024-01-15T22:28:59.468Z,101123.06
2024-01-15T22:33:52.636Z,100981.94
2024-01-15T22:38:40.038Z,101111.78
2024-01-15T22:43:27.433Z,100982.47
2024-01-15T22:48:29.088Z,101123.41
2024-01-15T22:53:19.068Z,101069.22
2024-01-15T22:58:07.701Z,101029.53
2024-01-15T23:02:54.921Z,101119.63
2024-01-15T23:07:42.201Z,101141.38
2024-01-15T23:12:34.019Z,101126.84
2024-01-15T23:17:21.154Z,101142.47
2024-01-15T23:22:08.470Z,101127.00
2024-01-15T23:26:55.758Z,101155.75
2024-01-15T23:31:45.573Z,101161.22
2024-01-15T23:36:33.020Z,101111.22
2024-01-15T23:41:20.595Z,101187.69
2024-01-15T23:46:14.350Z,101071.75
2024-01-15T23:51:05.556Z,101187.47
2024-01-15T23:55:52.744Z,101024.63
